Joslin Field Magic Valley Regional Airport
KTWF : now visible

Airfield :











YOU CAN JOIN US ON...

 
LOGIN :

Register | Disclaimer

   EN    FR    IT 

 









Legend :    VFR   Marginal VFR   IFR   Intensive IFR   Very Intensive IFR
Visi :
Ceiling :
>= 8 km
>= 3000ft
5 to 8 km
1000 to 3000 ft
1500m to 5 km
500 to 1000 ft
800 to 1500m
200 to 500 ft
< 800m
< 200 ft
Symbols :   Thunderstorms  Fog  Heavy snow  Heavy precipitations  Wind > 20 kt







- Airport Elevation : 4154 ft
- IATA code : TWF


KTWF - Joslin Field Magic Valley Regional

CURRENT METAR :
  • 210053Z 29008KT 10SM FEW033 OVC060 12/06 A2969 RMK AO2 SLP027 T01220061

EXPIRED METARs :
  • 202353Z 28012KT 10SM OVC055 12/06 A2968 RMK AO2 SLP026 T01220061 10144 20100 55001
  • 202253Z 28010KT 10SM FEW025 FEW055 13/07 A2968 RMK AO2 SLP024 T01330067

TAF KTWF
Valid from the 21 at 00:00 until the 22 at 00:00 UTC


202320Z 2100/2124 28010KT P6SM VCSH FEW025 OVC050
FM210300 21010KT P6SM VCSH BKN060
FM211000 21008KT P6SM -RA OVC015
FM211800 25010G20KT P6SM VCSH BKN030
KZLC FIR / North America



MET'MAP, your aeronautical weather chart ! - Copyright ORBIFLY December 2007 - Disclaimer

ORBIFLY MET'MAP TEAM :

Programming & Development : Alexandra Zaïnal
Concept & Development : Baudouin d'Aumeries
Co-Development & Prog : Marc-Olivier Méhu
Technical & hardware support : Manuel Goepfert

Contact : metmap@orbifly.com




SOURCES & CREDITS :

   NOAA       Earth
Advisory